createdAt,value
2023-05-09T00:00:25.802Z,8.76
2023-05-09T00:03:28.045Z,8.80
2023-05-09T00:06:30.633Z,8.83
2023-05-09T00:09:32.996Z,8.76
2023-05-09T00:12:35.646Z,8.87
2023-05-09T00:15:37.929Z,7.90
2023-05-09T00:18:42.276Z,7.43
2023-05-09T00:21:44.727Z,7.83
2023-05-09T00:24:48.049Z,7.88
2023-05-09T00:27:50.331Z,7.85
2023-05-09T00:30:52.629Z,7.74
2023-05-09T00:33:55.000Z,7.98
2023-05-09T00:36:57.486Z,7.91
2023-05-09T00:39:59.909Z,7.94
2023-05-09T00:43:02.308Z,7.80
2023-05-09T00:46:04.775Z,7.95
2023-05-09T00:49:08.375Z,7.66
2023-05-09T00:52:11.151Z,6.98
2023-05-09T00:55:14.003Z,7.08
2023-05-09T00:58:19.440Z,7.30
2023-05-09T01:01:22.481Z,7.35
2023-05-09T01:04:25.077Z,7.30
2023-05-09T01:07:50.028Z,7.19
2023-05-09T01:11:11.056Z,7.30
2023-05-09T01:14:33.560Z,7.43
2023-05-09T01:17:49.970Z,7.43
2023-05-09T01:21:04.133Z,7.35
2023-05-09T01:24:33.291Z,7.27
2023-05-09T01:28:17.002Z,7.33
2023-05-09T01:31:23.743Z,7.06
2023-05-09T01:34:28.700Z,7.12
2023-05-09T01:37:34.375Z,6.82
2023-05-09T01:40:38.723Z,6.92
2023-05-09T01:43:43.082Z,6.88
2023-05-09T01:46:54.064Z,6.89
2023-05-09T01:49:57.430Z,6.92
2023-05-09T01:53:01.742Z,6.94
2023-05-09T01:56:05.463Z,7.15
2023-05-09T01:59:08.661Z,7.03
2023-05-09T02:02:11.730Z,7.09
2023-05-09T02:05:15.292Z,7.23
2023-05-09T02:08:21.253Z,7.13
2023-05-09T02:11:24.326Z,7.25
2023-05-09T02:14:26.736Z,7.26
2023-05-09T02:17:30.930Z,7.30
2023-05-09T02:20:35.985Z,7.26
2023-05-09T02:23:38.688Z,7.19
2023-05-09T02:26:41.645Z,7.18
2023-05-09T02:29:49.245Z,7.12
2023-05-09T02:33:03.377Z,6.78
2023-05-09T02:36:06.398Z,6.71
2023-05-09T02:39:09.531Z,6.80
2023-05-09T02:42:14.296Z,6.77
2023-05-09T02:45:17.185Z,6.81
2023-05-09T02:48:19.504Z,6.88
2023-05-09T02:51:21.747Z,6.89
2023-05-09T02:54:24.204Z,6.87
2023-05-09T02:57:26.974Z,6.84
2023-05-09T03:00:29.252Z,6.88
2023-05-09T03:03:34.197Z,6.89
2023-05-09T03:06:39.255Z,6.87
2023-05-09T03:09:41.976Z,6.96
2023-05-09T03:12:44.343Z,6.99
2023-05-09T03:15:47.560Z,6.95
2023-05-09T03:18:49.986Z,6.96
2023-05-09T03:21:52.497Z,6.44
2023-05-09T03:24:55.095Z,5.47
2023-05-09T03:27:57.828Z,5.34
2023-05-09T03:31:03.415Z,5.20
2023-05-09T03:34:06.387Z,5.34
2023-05-09T03:37:08.824Z,5.72
2023-05-09T03:40:15.820Z,5.96
2023-05-09T03:43:27.765Z,6.19
2023-05-09T03:46:30.124Z,6.26
2023-05-09T03:49:32.455Z,6.40
2023-05-09T03:52:35.128Z,6.50
2023-05-09T03:55:38.014Z,6.61
2023-05-09T03:58:40.848Z,6.74
2023-05-09T04:01:43.395Z,6.72
2023-05-09T04:04:47.353Z,6.82
2023-05-09T04:07:52.607Z,6.63
2023-05-09T04:10:55.394Z,6.82
2023-05-09T04:13:59.625Z,6.84
2023-05-09T04:17:08.270Z,6.89
2023-05-09T04:20:11.700Z,7.01
2023-05-09T04:23:15.078Z,7.25
2023-05-09T04:26:18.402Z,7.27
2023-05-09T04:29:24.024Z,7.54
2023-05-09T04:32:30.003Z,7.62
2023-05-09T04:35:32.610Z,7.56
2023-05-09T04:38:34.925Z,7.70
2023-05-09T04:41:37.866Z,7.88
2023-05-09T04:44:40.144Z,7.95
2023-05-09T04:47:42.595Z,8.04
2023-05-09T04:50:44.955Z,8.16
2023-05-09T04:53:47.175Z,8.35
2023-05-09T04:56:51.630Z,8.41
2023-05-09T05:00:00.735Z,8.48
2023-05-09T05:03:03.771Z,8.72
2023-05-09T05:06:12.520Z,8.83
2023-05-09T05:09:17.043Z,8.79
2023-05-09T05:12:19.948Z,8.87
2023-05-09T05:15:22.831Z,9.00
2023-05-09T05:18:25.938Z,9.21
2023-05-09T05:21:29.606Z,9.35
2023-05-09T05:24:31.903Z,9.58
2023-05-09T05:27:34.235Z,9.54
2023-05-09T05:30:36.668Z,9.58
2023-05-09T05:33:39.247Z,9.85
2023-05-09T05:36:41.599Z,9.83
2023-05-09T05:39:44.109Z,10.09
2023-05-09T05:42:46.810Z,10.37
2023-05-09T05:45:49.788Z,10.47
2023-05-09T05:48:54.673Z,10.50
2023-05-09T05:51:59.157Z,10.65
2023-05-09T05:55:02.003Z,11.02
2023-05-09T05:58:04.604Z,11.22
2023-05-09T06:01:06.883Z,11.39
2023-05-09T06:04:09.928Z,11.49
2023-05-09T06:07:12.986Z,11.47
2023-05-09T06:10:17.178Z,11.89
2023-05-09T06:13:20.998Z,11.95
2023-05-09T06:16:28.136Z,12.05
2023-05-09T06:19:30.392Z,12.37
2023-05-09T06:22:32.689Z,13.00
2023-05-09T06:25:34.904Z,13.33
2023-05-09T06:28:37.468Z,13.67
2023-05-09T06:31:40.935Z,14.01
2023-05-09T06:34:43.241Z,14.16
2023-05-09T06:37:47.700Z,14.47
2023-05-09T06:40:50.868Z,14.62
2023-05-09T06:43:53.286Z,14.62
2023-05-09T06:46:55.606Z,15.00
2023-05-09T06:49:57.812Z,14.94
2023-05-09T06:53:00.054Z,15.21
2023-05-09T06:56:02.384Z,15.18
2023-05-09T06:59:16.367Z,15.12
2023-05-09T07:02:18.720Z,15.42
2023-05-09T07:05:21.084Z,15.76
2023-05-09T07:08:30.386Z,16.41
2023-05-09T07:11:36.345Z,16.71
2023-05-09T07:14:45.336Z,16.61
2023-05-09T07:17:47.591Z,16.91
2023-05-09T07:20:49.980Z,16.84
2023-05-09T07:23:52.271Z,17.09
2023-05-09T07:26:54.515Z,17.42
2023-05-09T07:29:56.785Z,17.73
2023-05-09T07:33:01.604Z,17.93
2023-05-09T07:36:04.141Z,17.84
2023-05-09T07:39:06.364Z,17.81
2023-05-09T07:42:08.618Z,17.83
2023-05-09T07:45:11.011Z,18.72
2023-05-09T07:48:13.272Z,18.58
2023-05-09T07:51:15.683Z,18.68
2023-05-09T07:54:17.935Z,19.16
2023-05-09T07:57:20.163Z,19.35
2023-05-09T08:00:24.050Z,19.64
2023-05-09T08:03:26.383Z,19.47
2023-05-09T08:06:28.829Z,19.04
2023-05-09T08:09:31.063Z,19.40
2023-05-09T08:12:33.298Z,19.49
2023-05-09T08:15:35.628Z,20.39
2023-05-09T08:18:38.840Z,20.36
2023-05-09T08:21:41.208Z,20.76
2023-05-09T08:24:43.530Z,20.72
2023-05-09T08:27:45.840Z,21.05
2023-05-09T08:30:48.167Z,21.21
2023-05-09T08:33:50.362Z,21.31
2023-05-09T08:36:53.352Z,21.78
2023-05-09T08:39:55.772Z,20.97
2023-05-09T08:42:59.636Z,21.25
2023-05-09T08:46:08.036Z,21.08
2023-05-09T08:49:11.048Z,21.18
2023-05-09T08:52:14.664Z,21.52
2023-05-09T08:55:16.964Z,22.02
2023-05-09T08:58:20.469Z,22.33
2023-05-09T09:01:23.530Z,22.63
2023-05-09T09:04:25.807Z,22.67
2023-05-09T09:07:30.560Z,22.41
2023-05-09T09:10:34.400Z,22.51
2023-05-09T09:13:40.591Z,22.83
2023-05-09T09:16:45.139Z,23.01
2023-05-09T09:19:50.494Z,22.91
2023-05-09T09:22:57.367Z,23.56
2023-05-09T09:26:03.057Z,24.17
2023-05-09T09:29:05.428Z,23.97
2023-05-09T09:32:08.006Z,23.73
2023-05-09T09:35:11.746Z,23.67
2023-05-09T09:38:13.977Z,23.84
2023-05-09T09:41:16.941Z,24.48
2023-05-09T09:44:21.581Z,25.09
2023-05-09T09:47:33.491Z,25.39
2023-05-09T09:50:36.040Z,25.85
2023-05-09T09:53:42.303Z,25.68
2023-05-09T09:56:49.346Z,25.05
2023-05-09T10:00:00.857Z,24.28
2023-05-09T10:03:03.920Z,24.62
2023-05-09T10:06:14.200Z,24.54
2023-05-09T10:09:17.301Z,25.02
2023-05-09T10:12:20.849Z,24.47
2023-05-09T10:15:23.815Z,24.21
2023-05-09T10:18:29.170Z,24.38
2023-05-09T10:21:33.162Z,24.57
2023-05-09T10:24:48.720Z,24.44
2023-05-09T10:27:54.352Z,25.08
2023-05-09T10:30:59.516Z,24.44
2023-05-09T10:34:07.793Z,24.37
2023-05-09T10:37:10.369Z,25.37
2023-05-09T10:40:15.964Z,24.72
2023-05-09T10:43:18.244Z,24.59
2023-05-09T10:46:20.900Z,24.57
2023-05-09T10:49:23.637Z,24.62
2023-05-09T10:52:32.056Z,25.37
2023-05-09T10:55:45.146Z,26.15
2023-05-09T10:58:48.032Z,26.96
2023-05-09T11:02:00.965Z,27.13
2023-05-09T11:05:17.171Z,27.08
2023-05-09T11:08:23.889Z,26.97
2023-05-09T11:11:26.216Z,26.15
2023-05-09T11:14:43.119Z,26.42
2023-05-09T11:17:45.584Z,25.81
2023-05-09T11:20:49.544Z,26.26
2023-05-09T11:23:54.513Z,26.55
2023-05-09T11:26:57.806Z,27.13
2023-05-09T11:30:05.435Z,27.45
2023-05-09T11:33:22.283Z,27.14
2023-05-09T11:36:29.383Z,26.93
2023-05-09T11:39:31.911Z,27.52
2023-05-09T11:42:34.495Z,26.32
2023-05-09T11:45:36.739Z,26.84
2023-05-09T11:48:39.971Z,27.27
2023-05-09T11:51:42.700Z,27.45
2023-05-09T11:54:45.116Z,27.04
2023-05-09T11:57:49.434Z,27.04
2023-05-09T12:00:51.945Z,26.36
2023-05-09T12:03:54.377Z,26.24
2023-05-09T12:07:01.342Z,26.60
2023-05-09T12:10:07.205Z,26.76
2023-05-09T12:13:10.571Z,27.65
2023-05-09T12:16:13.057Z,27.59
2023-05-09T12:19:18.842Z,27.95
2023-05-09T12:22:21.651Z,27.18
2023-05-09T12:25:23.943Z,27.98
2023-05-09T12:28:27.152Z,28.14
2023-05-09T12:31:29.677Z,27.14
2023-05-09T12:34:32.331Z,26.68
2023-05-09T12:37:34.585Z,25.92
2023-05-09T12:40:37.161Z,26.48
2023-05-09T12:43:39.710Z,25.58
2023-05-09T12:46:42.132Z,25.23
2023-05-09T12:49:49.478Z,24.44
2023-05-09T12:53:02.940Z,22.97
2023-05-09T12:56:23.469Z,22.87
2023-05-09T12:59:28.265Z,23.45
2023-05-09T13:02:42.811Z,23.30
2023-05-09T13:05:54.474Z,24.75
2023-05-09T13:09:02.258Z,25.80
2023-05-09T13:12:04.607Z,26.11
2023-05-09T13:15:07.707Z,26.64
2023-05-09T13:18:11.165Z,25.57
2023-05-09T13:21:13.479Z,25.46
2023-05-09T13:24:15.741Z,26.52
2023-05-09T13:27:18.016Z,25.22
2023-05-09T13:30:20.389Z,25.12
2023-05-09T13:33:26.255Z,25.18
2023-05-09T13:36:28.922Z,25.27
2023-05-09T13:39:31.831Z,23.43
2023-05-09T13:42:34.791Z,24.67
2023-05-09T13:45:37.072Z,24.95
2023-05-09T13:48:39.740Z,24.55
2023-05-09T13:51:42.126Z,23.65
2023-05-09T13:54:44.572Z,23.20
2023-05-09T13:57:46.795Z,23.60
2023-05-09T14:00:49.010Z,23.59
2023-05-09T14:03:51.404Z,23.46
2023-05-09T14:06:57.548Z,22.78
2023-05-09T14:10:11.620Z,23.16
2023-05-09T14:13:18.747Z,24.03
2023-05-09T14:16:21.983Z,24.22
2023-05-09T14:19:24.201Z,24.01
2023-05-09T14:22:26.890Z,23.96
2023-05-09T14:25:29.572Z,23.87
2023-05-09T14:28:32.098Z,25.00
2023-05-09T14:31:34.496Z,24.90
2023-05-09T14:34:36.989Z,25.09
2023-05-09T14:37:39.706Z,24.14
2023-05-09T14:40:41.952Z,22.72
2023-05-09T14:43:44.388Z,21.78
2023-05-09T14:46:46.759Z,21.52
2023-05-09T14:49:49.016Z,21.79
2023-05-09T14:52:52.444Z,21.69
2023-05-09T14:55:55.135Z,20.70
2023-05-09T14:58:57.387Z,20.62
2023-05-09T15:01:59.667Z,20.54
2023-05-09T15:05:02.521Z,19.77
2023-05-09T15:08:05.161Z,19.71
2023-05-09T15:11:08.102Z,19.82
2023-05-09T15:14:10.339Z,20.29
2023-05-09T15:17:12.638Z,20.74
2023-05-09T15:20:15.728Z,20.56
2023-05-09T15:23:18.243Z,21.20
2023-05-09T15:26:20.606Z,21.52
2023-05-09T15:29:22.993Z,21.32
2023-05-09T15:32:25.270Z,20.76
2023-05-09T15:35:27.562Z,20.13
2023-05-09T15:38:29.901Z,19.71
2023-05-09T15:41:32.168Z,19.85
2023-05-09T15:44:34.551Z,20.26
2023-05-09T15:47:37.003Z,19.71
2023-05-09T15:50:39.669Z,19.88
2023-05-09T15:53:42.531Z,19.71
2023-05-09T15:56:45.329Z,20.21
2023-05-09T15:59:47.653Z,19.89
2023-05-09T16:02:50.805Z,18.99
2023-05-09T16:05:53.373Z,18.95
2023-05-09T16:08:55.677Z,19.13
2023-05-09T16:11:57.989Z,19.43
2023-05-09T16:15:00.381Z,19.67
2023-05-09T16:18:03.043Z,19.20
2023-05-09T16:21:05.515Z,19.17
2023-05-09T16:24:08.154Z,19.30
2023-05-09T16:27:10.402Z,19.13
2023-05-09T16:30:13.434Z,19.00
2023-05-09T16:33:16.077Z,18.96
2023-05-09T16:36:18.341Z,19.03
2023-05-09T16:39:20.894Z,18.92
2023-05-09T16:42:23.182Z,18.82
2023-05-09T16:45:25.582Z,18.81
2023-05-09T16:48:27.911Z,18.61
2023-05-09T16:51:30.709Z,18.55
2023-05-09T16:54:32.930Z,18.44
2023-05-09T16:57:35.180Z,18.44
2023-05-09T17:00:37.702Z,18.32
2023-05-09T17:03:40.094Z,18.45
2023-05-09T17:06:42.361Z,18.37
2023-05-09T17:09:44.684Z,18.37
2023-05-09T17:12:47.453Z,18.04
2023-05-09T17:15:52.656Z,18.02
2023-05-09T17:18:55.023Z,17.83
2023-05-09T17:21:58.983Z,17.66
2023-05-09T17:25:01.290Z,17.65
2023-05-09T17:28:03.523Z,17.54
2023-05-09T17:31:05.947Z,17.39
2023-05-09T17:34:08.284Z,17.30
2023-05-09T17:37:10.891Z,17.07
2023-05-09T17:40:13.627Z,17.05
2023-05-09T17:43:16.133Z,16.91
2023-05-09T17:46:18.425Z,16.82
2023-05-09T17:49:21.581Z,16.72
2023-05-09T17:52:23.949Z,16.63
2023-05-09T17:55:26.393Z,16.54
2023-05-09T17:58:28.952Z,16.38
2023-05-09T18:01:31.291Z,16.24
2023-05-09T18:04:34.516Z,16.23
2023-05-09T18:07:37.177Z,16.12
2023-05-09T18:10:40.999Z,16.06
2023-05-09T18:13:43.373Z,15.99
2023-05-09T18:16:45.623Z,15.96
2023-05-09T18:19:47.897Z,15.70
2023-05-09T18:22:50.119Z,15.70
2023-05-09T18:25:54.094Z,15.63
2023-05-09T18:28:56.390Z,15.41
2023-05-09T18:31:58.659Z,15.37
2023-05-09T18:35:00.939Z,15.34
2023-05-09T18:38:03.269Z,15.28
2023-05-09T18:41:10.358Z,15.14
2023-05-09T18:44:12.657Z,14.98
2023-05-09T18:47:15.885Z,14.87
2023-05-09T18:50:19.124Z,14.67
2023-05-09T18:53:21.514Z,14.50
2023-05-09T18:56:25.568Z,14.55
2023-05-09T18:59:27.900Z,14.49
2023-05-09T19:02:30.249Z,14.49
2023-05-09T19:05:32.631Z,14.49
2023-05-09T19:08:34.880Z,14.46
2023-05-09T19:11:37.455Z,14.55
2023-05-09T19:14:41.155Z,14.47
2023-05-09T19:17:43.657Z,14.47
2023-05-09T19:20:47.295Z,14.42
2023-05-09T19:23:50.108Z,14.42
2023-05-09T19:26:52.390Z,14.18
2023-05-09T19:29:54.732Z,14.02
2023-05-09T19:32:58.391Z,13.92
2023-05-09T19:36:00.964Z,13.86
2023-05-09T19:39:03.510Z,13.82
2023-05-09T19:42:05.752Z,13.71
2023-05-09T19:45:08.717Z,13.42
2023-05-09T19:48:17.182Z,13.14
2023-05-09T19:51:19.468Z,12.86
2023-05-09T19:54:25.714Z,13.03
2023-05-09T19:57:27.926Z,13.28
2023-05-09T20:00:30.174Z,13.37
2023-05-09T20:03:34.058Z,13.30
2023-05-09T20:06:36.338Z,13.24
2023-05-09T20:09:38.570Z,13.14
2023-05-09T20:12:41.465Z,13.04
2023-05-09T20:15:44.084Z,13.04
2023-05-09T20:18:46.349Z,13.04
2023-05-09T20:21:48.603Z,13.02
2023-05-09T20:24:51.144Z,12.95
2023-05-09T20:27:53.445Z,12.91
2023-05-09T20:30:56.488Z,12.83
2023-05-09T20:33:58.956Z,12.88
2023-05-09T20:37:01.492Z,12.71
2023-05-09T20:40:06.538Z,12.62
2023-05-09T20:43:08.993Z,12.49
2023-05-09T20:46:11.558Z,12.42
2023-05-09T20:49:13.905Z,12.38
2023-05-09T20:52:16.449Z,12.28
2023-05-09T20:55:18.830Z,12.18
2023-05-09T20:58:21.160Z,12.17
2023-05-09T21:01:23.707Z,12.07
2023-05-09T21:04:25.939Z,12.00
2023-05-09T21:07:28.156Z,11.98
2023-05-09T21:10:30.473Z,11.93
2023-05-09T21:13:32.676Z,11.89
2023-05-09T21:16:35.126Z,11.82
2023-05-09T21:19:37.415Z,11.74
2023-05-09T21:22:41.052Z,11.72
2023-05-09T21:25:43.331Z,11.65
2023-05-09T21:28:45.665Z,11.56
2023-05-09T21:31:48.142Z,11.49
2023-05-09T21:34:50.443Z,11.50
2023-05-09T21:37:52.780Z,11.47
2023-05-09T21:40:56.283Z,11.39
2023-05-09T21:43:58.535Z,11.42
2023-05-09T21:47:00.923Z,11.36
2023-05-09T21:50:04.332Z,11.31
2023-05-09T21:53:06.619Z,11.26
2023-05-09T21:56:08.858Z,11.25
2023-05-09T21:59:11.212Z,11.22
2023-05-09T22:02:14.489Z,11.19
2023-05-09T22:05:16.834Z,11.22
2023-05-09T22:08:19.166Z,11.12
2023-05-09T22:11:21.392Z,11.12
2023-05-09T22:14:23.810Z,11.08
2023-05-09T22:17:26.141Z,11.02
2023-05-09T22:20:28.415Z,11.02
2023-05-09T22:23:30.654Z,11.00
2023-05-09T22:26:33.241Z,10.95
2023-05-09T22:29:35.673Z,10.92
2023-05-09T22:32:38.499Z,10.88
2023-05-09T22:35:40.853Z,10.87
2023-05-09T22:38:43.141Z,10.84
2023-05-09T22:41:45.398Z,10.80
2023-05-09T22:44:50.001Z,10.77
2023-05-09T22:47:52.438Z,10.74
2023-05-09T22:50:54.700Z,10.74
2023-05-09T22:53:56.983Z,10.72
2023-05-09T22:56:59.256Z,10.68
2023-05-09T23:00:01.550Z,10.61
2023-05-09T23:03:04.636Z,10.56
2023-05-09T23:06:07.340Z,10.40
2023-05-09T23:09:10.621Z,10.36
2023-05-09T23:12:12.882Z,10.30
2023-05-09T23:15:15.160Z,10.30
2023-05-09T23:18:17.749Z,10.19
2023-05-09T23:21:19.983Z,10.09
2023-05-09T23:24:22.227Z,10.06
2023-05-09T23:27:24.467Z,9.96
2023-05-09T23:30:26.662Z,9.93
2023-05-09T23:33:28.858Z,9.85
2023-05-09T23:36:31.548Z,9.79
2023-05-09T23:39:33.761Z,9.72
2023-05-09T23:42:36.026Z,9.67
2023-05-09T23:45:38.412Z,9.63
2023-05-09T23:48:40.683Z,9.62
2023-05-09T23:51:42.871Z,9.57
2023-05-09T23:54:46.573Z,9.54
2023-05-09T23:57:48.801Z,9.54
